FAMM

Mmabatho International Airport

Mafeking, South Africa
METAR FAMM 221300Z 03012KT CAVOK 24/M03 Q1028 NOSIG
Observed Flight Rules
Oct-22 @ 13:00 UTC (an hour ago) Visual Flight Rules
Wind Visibility Clouds
30° at 12 knots 10,000+ meters
  • Clear skies
Temperatures Readings
Current 24°C / 75°F
Dewpoint -3°C / 27°F
Humidity 16%
Altimeter 30.35" Hg
Pressure 1028 hPa
Elevation 1277
METAR FAMM 221300Z 03012KT CAVOK 24/M03 Q1028 NOSIG
Observed Flight Rules
Oct-22 @ 13:00 UTC
(an hour ago)
VFR
Wind Visibility
30° at 12 knots 10,000+ meters
Clouds
  • Clear skies
Temperature Dewpoint
24°C / 75°F -3°C / 27°F
Humidity Altimeter Pressure
16% 30.35" Hg 1028 hPa